Time;durP1;ratioP1;P1;durP2;ratioP2;P2;SDS_P1;SDS_P2;PMS_P1;PMS_P2;Temp;Humidity;BMP_temperature;BMP_pressure;BME280_temperature;BME280_humidity;BME280_pressure;Samples;Min_cycle;Max_cycle;Signal;HPM_P1;HPM_P2
2022/06/09 00:01:14;;;;;;;28.25;9.50;;;;;;;15.36;45.13;99513.41;5049741;28;20543;-76
2022/06/09 00:03:45;;;;;;;28.15;10.38;;;;;;;15.32;45.01;99518.72;5045760;28;20036;-76
2022/06/09 00:06:12;;;;;;;37.33;10.95;;;;;;;15.28;45.13;99508.63;5045782;28;20448;-76
2022/06/09 00:08:42;;;;;;;33.30;10.98;;;;;;;15.33;44.67;99511.28;5063878;28;20262;-76
2022/06/09 00:11:12;;;;;;;39.65;10.70;;;;;;;15.32;45.14;99515.97;5048753;28;20040;-76
2022/06/09 00:13:41;;;;;;;42.58;11.57;;;;;;;15.29;45.08;99504.75;5066861;28;20522;-75
2022/06/09 00:16:09;;;;;;;43.42;12.73;;;;;;;15.24;45.33;99510.41;5067422;28;20541;-76
2022/06/09 00:18:35;;;;;;;41.08;11.27;;;;;;;15.17;45.58;99511.66;5065613;28;20079;-74
2022/06/09 00:21:02;;;;;;;45.38;13.02;;;;;;;15.09;45.70;99506.88;5015624;28;20048;-76
2022/06/09 00:23:28;;;;;;;37.47;11.95;;;;;;;15.02;46.07;99501.00;5048726;28;20748;-76
2022/06/09 00:25:55;;;;;;;47.28;13.88;;;;;;;14.96;46.25;99500.31;5065150;28;20044;-75
2022/06/09 00:28:22;;;;;;;50.80;13.48;;;;;;;14.96;46.18;99499.50;5045879;28;20052;-72
2022/06/09 00:30:50;;;;;;;43.97;13.32;;;;;;;14.95;46.05;99501.44;5044554;28;20102;-73
2022/06/09 00:33:16;;;;;;;53.35;14.68;;;;;;;14.88;46.41;99503.81;5062118;28;20538;-71
2022/06/09 00:35:42;;;;;;;44.78;14.23;;;;;;;14.85;46.43;99504.44;5062488;28;20109;-72
2022/06/09 00:38:09;;;;;;;41.60;13.67;;;;;;;14.84;46.51;99500.06;5047416;28;20045;-72
2022/06/09 00:40:35;;;;;;;50.60;14.10;;;;;;;14.83;46.55;99502.00;5010965;28;20188;-72
2022/06/09 00:43:02;;;;;;;53.63;14.15;;;;;;;14.82;46.98;99500.34;5043466;28;20044;-71
2022/06/09 00:45:30;;;;;;;;;;;;;;;14.80;47.13;99499.06;5045185;28;20052;-72
2022/06/09 00:48:11;;;;;;;48.00;13.98;;;;;;;14.74;47.67;99501.09;5045750;28;20169;-71
2022/06/09 00:50:39;;;;;;;44.70;12.43;;;;;;;14.72;47.82;99497.84;5063689;28;20049;-71
2022/06/09 00:53:13;;;;;;;40.13;13.38;;;;;;;14.75;47.57;99499.97;5062379;28;20044;-72
2022/06/09 00:55:41;;;;;;;42.38;13.35;;;;;;;14.78;47.76;99501.31;5044451;28;20496;-72
2022/06/09 00:58:11;;;;;;;45.53;14.25;;;;;;;14.81;47.56;99493.22;5061823;28;20149;-71
2022/06/09 01:00:43;;;;;;;44.08;14.43;;;;;;;14.70;47.91;99478.06;5063492;28;20054;-71
2022/06/09 01:03:10;;;;;;;44.63;13.75;;;;;;;14.74;48.31;99493.66;5064666;28;20057;-72
2022/06/09 01:05:38;;;;;;;;;;;;;;;14.65;48.99;99497.41;5066581;28;20098;-71
2022/06/09 01:08:04;;;;;;;39.25;13.85;;;;;;;14.58;49.52;99495.09;5063648;28;19924;-71
2022/06/09 01:10:30;;;;;;;58.65;16.33;;;;;;;14.53;49.22;99497.97;5044732;28;20519;-71
2022/06/09 01:12:57;;;;;;;45.28;14.90;;;;;;;14.50;49.02;99484.84;5063684;28;20051;-72
2022/06/09 01:15:29;;;;;;;58.72;15.68;;;;;;;14.56;49.27;99489.91;5064709;28;20404;-72
2022/06/09 01:18:08;;;;;;;55.63;15.77;;;;;;;14.58;49.18;99501.41;5046248;28;20549;-76
2022/06/09 01:20:42;;;;;;;46.78;14.90;;;;;;;14.64;49.53;99490.28;5062817;28;20142;-75
2022/06/09 01:23:33;;;;;;;67.68;17.58;;;;;;;14.67;49.13;99497.91;5063670;28;20050;-75
2022/06/09 01:26:37;;;;;;;44.97;16.75;;;;;;;14.72;49.05;99508.84;5064860;28;20076;-76
2022/06/09 01:29:31;;;;;;;60.55;18.77;;;;;;;14.72;48.92;99501.41;5064382;28;20079;-76
2022/06/09 01:32:05;;;;;;;61.97;17.38;;;;;;;14.73;48.98;99497.53;5031450;28;20078;-76
2022/06/09 01:34:38;;;;;;;52.20;17.00;;;;;;;14.78;49.49;99495.81;5063156;28;20056;-75
2022/06/09 01:37:11;;;;;;;61.83;18.33;;;;;;;14.80;49.41;99494.34;5062529;28;20033;-76
2022/06/09 01:39:50;;;;;;;70.55;20.20;;;;;;;14.84;49.41;99498.13;5064759;28;20568;-76
2022/06/09 01:42:26;;;;;;;51.50;17.25;;;;;;;14.81;49.87;99493.22;5063123;28;20048;-76
2022/06/09 01:44:55;;;;;;;61.47;17.90;;;;;;;14.82;49.85;99488.53;5044674;28;20526;-75
2022/06/09 01:47:28;;;;;;;73.70;17.67;;;;;;;14.86;49.74;99487.63;5044370;28;20060;-76
2022/06/09 01:49:58;;;;;;;48.03;15.88;;;;;;;14.91;50.09;99485.88;5063178;28;20102;-75
2022/06/09 01:52:26;;;;;;;54.63;15.77;;;;;;;14.95;50.07;99487.69;5062521;28;20153;-76
2022/06/09 01:54:52;;;;;;;;;;;;;;;14.95;50.36;99487.69;5067531;28;20076;-76
2022/06/09 01:57:25;;;;;;;49.60;14.60;;;;;;;14.93;51.14;99494.63;5062765;28;19931;-76
2022/06/09 01:59:54;;;;;;;60.33;15.50;;;;;;;14.91;51.47;99496.88;5062570;28;20060;-76
2022/06/09 02:02:27;;;;;;;44.28;14.75;;;;;;;14.89;51.88;99487.00;5064051;28;20036;-76
2022/06/09 02:04:57;;;;;;;47.80;15.32;;;;;;;14.93;51.88;99489.94;5044245;28;20048;-75
2022/06/09 02:07:27;;;;;;;56.35;15.13;;;;;;;14.93;51.62;99478.94;5012471;28;20046;-76
2022/06/09 02:09:54;;;;;;;51.22;15.30;;;;;;;14.96;52.00;99491.25;5062900;28;20051;-75
2022/06/09 02:12:27;;;;;;;44.28;15.18;;;;;;;14.96;52.02;99486.56;5064344;28;20044;-75
2022/06/09 02:14:58;;;;;;;47.22;15.90;;;;;;;14.93;52.57;99480.84;5043357;28;20051;-75
2022/06/09 02:17:26;;;;;;;58.58;15.18;;;;;;;14.95;52.66;99482.19;5062668;28;20142;-75
2022/06/09 02:19:52;;;;;;;;;;;;;;;14.95;52.56;99484.94;5060768;28;20117;-75
2022/06/09 02:22:18;;;;;;;55.85;15.15;;;;;;;14.96;52.59;99482.97;5060082;28;20405;-76
2022/06/09 02:24:44;;;;;;;60.63;15.25;;;;;;;15.01;53.19;99486.44;5061131;28;20163;-76
2022/06/09 02:27:10;;;;;;;45.17;14.60;;;;;;;15.05;52.99;99485.78;5061034;28;20059;-75
2022/06/09 02:29:36;;;;;;;47.05;14.70;;;;;;;15.08;53.07;99485.19;5064585;28;20062;-75
2022/06/09 02:32:03;;;;;;;43.80;15.38;;;;;;;15.14;53.01;99493.03;5065722;28;20052;-75
2022/06/09 02:34:30;;;;;;;56.28;16.92;;;;;;;15.16;53.23;99496.28;5065900;28;20052;-76
2022/06/09 02:36:57;;;;;;;55.15;16.17;;;;;;;15.19;52.78;99496.75;5067975;28;20041;-75
2022/06/09 02:39:23;;;;;;;53.28;16.20;;;;;;;15.21;53.15;99492.56;5069190;28;20090;-76
2022/06/09 02:41:49;;;;;;;55.13;15.82;;;;;;;15.23;52.90;99495.00;5054310;28;20519;-75
2022/06/09 02:44:14;;;;;;;47.65;14.85;;;;;;;15.26;53.43;99497.94;5069387;28;20051;-76
2022/06/09 02:46:40;;;;;;;57.55;15.80;;;;;;;15.28;53.16;99486.59;5052323;28;20055;-75
2022/06/09 02:49:06;;;;;;;48.50;15.50;;;;;;;15.34;52.52;99496.38;5048242;28;20048;-76
2022/06/09 02:51:39;;;;;;;62.47;17.13;;;;;;;15.14;52.44;99451.72;5066182;28;20044;-76
2022/06/09 02:54:08;;;;;;;52.40;16.60;;;;;;;15.44;52.59;99490.59;5069082;28;20056;-75
2022/06/09 02:56:34;;;;;;;54.50;16.20;;;;;;;15.49;52.28;99500.66;5017574;28;20048;-76
2022/06/09 02:59:00;;;;;;;62.58;16.80;;;;;;;15.52;52.42;99499.25;5064676;28;20140;-75
2022/06/09 03:01:28;;;;;;;57.22;17.40;;;;;;;15.54;52.47;99496.97;5048945;28;20048;-75
2022/06/09 03:03:55;;;;;;;50.53;16.20;;;;;;;15.61;52.49;99505.63;5049715;28;20048;-75
2022/06/09 03:06:21;;;;;;;55.30;15.75;;;;;;;15.65;52.30;99512.13;5051227;28;20131;-76
2022/06/09 03:08:49;;;;;;;43.92;16.02;;;;;;;15.71;52.02;99512.81;5031888;28;20547;-75
2022/06/09 03:11:15;;;;;;;52.40;17.13;;;;;;;15.75;51.89;99500.00;5049620;28;20083;-76
2022/06/09 03:13:43;;;;;;;56.58;17.55;;;;;;;15.81;51.49;99501.47;5050140;28;20049;-76
2022/06/09 03:16:11;;;;;;;49.50;17.55;;;;;;;15.87;51.35;99500.22;5067365;28;20086;-76
2022/06/09 03:18:37;;;;;;;69.47;18.52;;;;;;;15.94;51.39;99501.72;5063312;28;20047;-76
2022/06/09 03:21:04;;;;;;;44.95;18.45;;;;;;;15.98;50.95;99497.19;5045564;28;20044;-76
2022/06/09 03:23:31;;;;;;;60.70;18.75;;;;;;;16.06;50.73;99501.94;5063951;28;20661;-76
2022/06/09 03:25:58;;;;;;;;;;;;;;;16.09;50.33;99498.53;5065344;28;20483;-76
2022/06/09 03:28:25;;;;;;;56.13;18.65;;;;;;;16.16;50.36;99496.16;5063254;28;19924;-75
2022/06/09 03:30:51;;;;;;;66.72;19.45;;;;;;;16.22;50.37;99498.75;5048022;28;20053;-77
2022/06/09 03:33:17;;;;;;;70.07;19.05;;;;;;;16.27;50.10;99496.66;5064424;28;20067;-76
2022/06/09 03:35:43;;;;;;;64.80;19.38;;;;;;;16.29;50.28;99502.66;5046776;28;20044;-76
2022/06/09 03:38:09;;;;;;;60.78;18.35;;;;;;;16.39;50.25;99503.47;5046772;28;20147;-72
2022/06/09 03:40:36;;;;;;;53.63;18.17;;;;;;;16.47;50.22;99501.88;5063954;28;20541;-73
2022/06/09 03:43:03;;;;;;;71.97;20.02;;;;;;;16.52;50.08;99505.28;5045509;28;20054;-72
2022/06/09 03:45:30;;;;;;;60.92;17.35;;;;;;;16.61;50.33;99505.31;5045564;28;20051;-71
2022/06/09 03:47:56;;;;;;;61.97;17.90;;;;;;;16.70;50.32;99499.78;5014060;28;20048;-71
2022/06/09 03:50:24;;;;;;;55.90;16.65;;;;;;;16.80;50.34;99505.00;5047063;28;20306;-72
2022/06/09 03:52:50;;;;;;;52.97;17.27;;;;;;;16.87;50.43;99494.31;5063901;28;20567;-70
2022/06/09 03:55:17;;;;;;;64.53;17.55;;;;;;;16.94;50.01;99504.88;5065541;28;20562;-75
2022/06/09 03:57:43;;;;;;;50.95;17.02;;;;;;;17.04;49.78;99497.41;5014207;28;20067;-76
2022/06/09 04:00:15;;;;;;;68.85;18.50;;;;;;;17.12;49.63;99504.88;5048708;28;20504;-76
2022/06/09 04:02:41;;;;;;;48.88;17.88;;;;;;;17.23;49.58;99499.84;5064427;28;20094;-76
2022/06/09 04:05:08;;;;;;;63.42;20.77;;;;;;;17.31;49.49;99499.00;5064088;28;20055;-76
2022/06/09 04:07:34;;;;;;;54.15;16.25;;;;;;;17.39;48.73;99497.34;5028524;28;20048;-76
2022/06/09 04:10:00;;;;;;;43.05;15.93;;;;;;;17.39;48.63;99498.19;5044602;28;20098;-76
2022/06/09 04:12:26;;;;;;;42.10;14.60;;;;;;;17.48;47.77;99502.84;5045751;28;20056;-76
2022/06/09 04:14:52;;;;;;;40.33;14.50;;;;;;;17.56;47.55;99493.75;5046142;28;20052;-76
2022/06/09 04:17:20;;;;;;;41.42;14.65;;;;;;;17.60;46.85;99499.44;5045501;28;20392;-75
2022/06/09 04:19:46;;;;;;;47.95;14.48;;;;;;;17.64;46.88;99490.16;5045390;28;20299;-76
2022/06/09 04:22:12;;;;;;;45.05;13.88;;;;;;;17.77;46.36;99491.09;5030699;28;20474;-76
2022/06/09 04:24:38;;;;;;;55.03;14.18;;;;;;;17.85;46.58;99493.00;5064200;28;20143;-76
2022/06/09 04:27:05;;;;;;;41.05;13.18;;;;;;;17.95;46.54;99497.38;5047139;28;20146;-76
2022/06/09 04:29:31;;;;;;;51.65;13.63;;;;;;;18.01;46.49;99495.19;5062147;28;20059;-75
2022/06/09 04:31:57;;;;;;;56.72;16.10;;;;;;;18.08;46.04;99494.72;5031634;28;20127;-76
2022/06/09 04:34:24;;;;;;;48.85;16.20;;;;;;;18.11;45.66;99488.53;5064185;28;20578;-72
2022/06/09 04:36:50;;;;;;;61.90;17.42;;;;;;;18.18;45.29;99488.00;5066028;28;20068;-72
2022/06/09 04:39:16;;;;;;;53.88;14.75;;;;;;;18.31;45.54;99497.22;5047691;28;20078;-72
2022/06/09 04:41:42;;;;;;;48.33;15.40;;;;;;;18.37;45.34;99493.91;5062730;28;20059;-73
2022/06/09 04:44:08;;;;;;;50.33;14.75;;;;;;;18.42;44.93;99492.91;5044539;28;20049;-73
2022/06/09 04:46:35;;;;;;;49.05;14.20;;;;;;;18.52;44.13;99502.78;5043418;28;20045;-72
2022/06/09 04:49:00;;;;;;;49.85;14.27;;;;;;;18.58;43.97;99500.63;5045290;28;20048;-72
2022/06/09 04:51:30;;;;;;;48.03;13.30;;;;;;;18.65;43.14;99495.34;5062523;28;20082;-72
2022/06/09 04:53:57;;;;;;;45.67;13.40;;;;;;;18.66;42.95;99495.03;5011212;28;20041;-73
2022/06/09 04:56:23;;;;;;;47.38;13.85;;;;;;;18.70;43.15;99498.75;5044040;28;20056;-73
2022/06/09 04:58:51;;;;;;;41.80;13.05;;;;;;;18.77;42.88;99503.75;5064271;28;20044;-73
2022/06/09 05:01:19;;;;;;;42.75;13.10;;;;;;;18.82;42.84;99509.06;5061212;28;20050;-72
2022/06/09 05:03:46;;;;;;;47.90;13.32;;;;;;;18.88;42.82;99504.16;5027331;28;20124;-72
2022/06/09 05:06:12;;;;;;;43.85;14.13;;;;;;;18.91;42.90;99492.38;5035267;28;20055;-72
2022/06/09 05:08:40;;;;;;;38.17;12.63;;;;;;;19.06;42.24;99510.38;5052598;28;20049;-72
2022/06/09 05:11:07;;;;;;;51.30;12.73;;;;;;;19.09;42.20;99508.88;5050426;28;20076;-76
2022/06/09 05:13:33;;;;;;;44.53;14.25;;;;;;;19.16;42.11;99505.56;5055451;28;20548;-76
2022/06/09 05:16:00;;;;;;;42.05;12.73;;;;;;;19.22;41.75;99510.56;5054251;28;20040;-76
2022/06/09 05:18:29;;;;;;;38.00;11.57;;;;;;;19.27;41.40;99512.31;5038891;28;20045;-76
2022/06/09 05:20:57;;;;;;;41.88;10.90;;;;;;;19.36;41.00;99509.47;5054247;28;20174;-76
2022/06/09 05:23:23;;;;;;;34.53;12.57;;;;;;;19.42;41.48;99510.84;5017976;28;20067;-76
2022/06/09 05:25:52;;;;;;;39.10;11.98;;;;;;;19.46;42.19;99503.50;5043042;28;20076;-77
2022/06/09 05:28:20;;;;;;;42.33;13.82;;;;;;;19.55;41.92;99509.72;5034538;28;20052;-77
2022/06/09 05:30:46;;;;;;;37.33;12.75;;;;;;;19.60;41.50;99514.25;5059875;28;20036;-77
2022/06/09 05:33:13;;;;;;;39.20;11.60;;;;;;;19.68;41.53;99507.00;5059400;28;20110;-77
2022/06/09 05:35:42;;;;;;;40.70;12.70;;;;;;;19.74;41.85;99515.91;4714052;28;10000533;-77
2022/06/09 05:46:28;;;;;;;40.58;11.93;;;;;;;19.97;41.27;99502.44;5054838;28;20144;-76
2022/06/09 05:48:54;;;;;;;38.13;11.95;;;;;;;20.02;40.55;99499.44;5053750;28;20469;-76
2022/06/09 05:51:20;;;;;;;38.45;12.05;;;;;;;20.10;40.08;99503.25;5043365;28;20048;-76
2022/06/09 05:53:47;;;;;;;44.42;12.43;;;;;;;20.14;40.16;99495.06;5044536;28;20048;-75
2022/06/09 05:56:16;;;;;;;46.38;10.93;;;;;;;20.23;40.11;99491.00;5057743;28;20045;-76
2022/06/09 05:58:42;;;;;;;41.53;12.07;;;;;;;20.30;40.46;99493.19;5060351;28;20049;-75
2022/06/09 06:01:11;;;;;;;42.88;10.70;;;;;;;20.37;39.79;99490.66;5027842;28;20098;-75
2022/06/09 06:03:39;;;;;;;42.40;10.25;;;;;;;20.49;38.64;99489.00;5050858;28;20582;-75
2022/06/09 06:08:49;;;;;;;39.42;9.50;;;;;;;20.59;37.25;99482.97;5064314;28;20574;-71
2022/06/09 06:11:17;;;;;;;36.92;10.07;;;;;;;20.65;37.43;99486.31;5067691;28;20048;-75
2022/06/09 06:13:45;;;;;;;41.25;11.23;;;;;;;20.71;37.79;99486.88;5063924;28;20442;-75
2022/06/09 06:16:12;;;;;;;35.90;9.40;;;;;;;20.73;38.22;99493.69;5037127;28;20044;-75
2022/06/09 06:18:38;;;;;;;39.92;10.85;;;;;;;20.71;37.80;99496.00;5053289;28;20044;-71
2022/06/09 06:21:04;;;;;;;32.05;9.02;;;;;;;20.78;37.16;99487.09;5052357;28;20515;-72
2022/06/09 06:23:31;;;;;;;28.35;8.63;;;;;;;20.93;36.02;99483.59;5035179;28;20044;-71
2022/06/09 06:25:58;;;;;;;45.80;9.23;;;;;;;21.11;36.00;99483.28;5029824;28;20458;-72
2022/06/09 06:28:27;;;;;;;25.48;6.65;;;;;;;21.22;34.72;99475.25;5049608;28;20624;-72
2022/06/09 06:30:53;;;;;;;22.60;6.50;;;;;;;21.41;34.40;99487.69;5051069;28;20144;-72
2022/06/09 06:33:19;;;;;;;27.00;5.80;;;;;;;21.55;33.76;99479.72;5050820;28;20143;-72
2022/06/09 06:35:46;;;;;;;31.13;6.40;;;;;;;21.71;32.74;99485.31;5044227;28;20048;-71
2022/06/09 06:38:12;;;;;;;23.73;5.72;;;;;;;21.87;32.25;99490.06;5063194;28;20314;-74
2022/06/09 06:40:38;;;;;;;31.13;6.85;;;;;;;22.02;31.66;99482.91;5048637;28;20098;-71
2022/06/09 06:43:05;;;;;;;30.25;5.93;;;;;;;22.18;31.05;99486.47;5042563;28;20048;-74
2022/06/09 06:45:33;;;;;;;32.80;5.60;;;;;;;22.32;31.10;99482.38;5058502;28;20136;-75
2022/06/09 06:47:59;;;;;;;20.20;6.57;;;;;;;22.44;30.36;99482.28;5068286;28;20090;-74
2022/06/09 06:50:26;;;;;;;23.40;5.57;;;;;;;22.46;30.56;99482.72;5059820;28;20044;-72
2022/06/09 06:52:53;;;;;;;23.47;5.83;;;;;;;22.53;30.10;99482.09;5045635;28;20049;-71
2022/06/09 06:55:21;;;;;;;21.50;5.43;;;;;;;22.66;30.11;99480.00;5065138;28;20155;-71
2022/06/09 06:57:48;;;;;;;28.98;6.00;;;;;;;22.82;29.61;99476.34;5041788;28;20052;-71
2022/06/09 07:00:18;;;;;;;20.98;5.15;;;;;;;23.11;29.35;99482.53;5042412;28;20145;-71
2022/06/09 07:02:47;;;;;;;22.40;4.88;;;;;;;23.36;28.43;99485.81;5063222;28;20076;-71
2022/06/09 07:05:15;;;;;;;14.18;3.80;;;;;;;23.52;27.79;99488.50;5044218;28;20474;-72
2022/06/09 07:07:41;;;;;;;;;;;;;;;23.59;27.60;99488.63;5061605;28;20056;-71
2022/06/09 07:10:08;;;;;;;25.70;4.30;;;;;;;23.72;27.19;99488.44;5058984;28;19934;-71
2022/06/09 07:12:35;;;;;;;11.35;4.10;;;;;;;23.83;26.99;99481.06;5061346;28;20059;-70
2022/06/09 07:15:02;;;;;;;22.25;6.40;;;;;;;23.86;26.71;99471.94;5047556;28;20131;-74
2022/06/09 07:17:29;;;;;;;18.13;5.22;;;;;;;24.01;26.95;99472.16;5045313;28;20114;-75
2022/06/09 07:19:56;;;;;;;27.40;6.65;;;;;;;24.11;26.90;99467.97;5057897;28;20495;-71
2022/06/09 07:22:24;;;;;;;20.38;6.10;;;;;;;24.21;26.67;99472.91;5045641;28;20037;-71
2022/06/09 07:24:55;;;;;;;28.55;6.20;;;;;;;24.35;27.00;99461.13;5029874;28;20044;-72
2022/06/09 07:27:22;;;;;;;21.05;7.07;;;;;;;24.40;26.48;99469.22;5034545;28;20064;-74
2022/06/09 07:29:48;;;;;;;19.15;7.22;;;;;;;24.45;26.17;99471.66;5059291;28;20051;-74
2022/06/09 07:32:15;;;;;;;27.23;7.32;;;;;;;24.34;26.37;99451.16;5043940;28;20045;-70
2022/06/09 07:34:41;;;;;;;27.35;6.97;;;;;;;24.39;26.37;99450.03;5057788;28;20078;-70
2022/06/09 07:37:09;;;;;;;26.03;7.17;;;;;;;24.55;26.33;99469.41;5026546;28;20555;-74
2022/06/09 07:39:35;;;;;;;19.98;6.72;;;;;;;24.59;26.62;99470.25;5045159;28;20302;-74
2022/06/09 07:42:03;;;;;;;23.35;6.70;;;;;;;24.85;26.15;99458.25;5042680;28;20538;-75
2022/06/09 07:44:29;;;;;;;25.85;6.35;;;;;;;24.98;25.57;99461.59;5058495;28;20044;-74
2022/06/09 07:46:55;;;;;;;16.67;5.93;;;;;;;25.23;25.59;99468.66;5058892;28;20213;-74
2022/06/09 07:49:21;;;;;;;28.27;6.50;;;;;;;25.28;25.95;99462.72;5041560;28;20048;-74
2022/06/09 07:51:48;;;;;;;26.08;6.25;;;;;;;25.45;25.89;99467.69;5057822;28;20048;-75
2022/06/09 07:54:15;;;;;;;20.17;6.05;;;;;;;25.67;25.59;99464.31;5053949;28;20536;-74
2022/06/09 07:56:42;;;;;;;19.55;6.28;;;;;;;25.96;24.97;99465.34;5026267;28;20052;-74
2022/06/09 07:59:08;;;;;;;30.60;5.88;;;;;;;26.00;24.37;99463.41;5026433;28;20044;-74
2022/06/09 08:01:35;;;;;;;28.73;7.00;;;;;;;25.98;24.66;99471.38;5043299;28;20064;-74
2022/06/09 08:04:02;;;;;;;30.17;6.45;;;;;;;26.15;24.24;99463.50;5023486;28;20052;-70
2022/06/09 08:06:29;;;;;;;30.52;6.55;;;;;;;26.33;24.25;99470.06;5044469;28;20040;-74
2022/06/09 08:08:57;;;;;;;31.30;6.63;;;;;;;26.60;23.59;99458.59;5065744;28;20515;-74
2022/06/09 08:11:26;;;;;;;23.48;6.32;;;;;;;27.17;22.87;99453.63;5061828;28;20054;-74
2022/06/09 08:13:52;;;;;;;26.42;6.63;;;;;;;27.48;22.83;99456.91;5041747;28;20087;-74
2022/06/09 08:16:18;;;;;;;19.67;5.80;;;;;;;27.49;22.39;99452.91;5047697;28;20048;-75
2022/06/09 08:18:45;;;;;;;24.27;6.67;;;;;;;27.70;22.24;99457.72;5024881;28;20582;-76
2022/06/09 08:21:11;;;;;;;29.48;5.55;;;;;;;28.03;21.77;99455.75;5060206;28;20295;-75
2022/06/09 08:23:37;;;;;;;25.83;6.13;;;;;;;28.33;21.46;99453.69;5044336;28;20503;-74
2022/06/09 08:26:05;;;;;;;19.15;5.20;;;;;;;28.43;21.18;99454.88;5026679;28;20048;-75
2022/06/09 08:28:33;;;;;;;21.90;5.43;;;;;;;28.65;21.06;99449.19;5042657;28;20600;-74
2022/06/09 08:30:59;;;;;;;23.50;5.80;;;;;;;28.74;20.91;99460.81;5059386;28;20051;-74
2022/06/09 08:33:26;;;;;;;34.55;5.82;;;;;;;28.62;20.79;99450.81;5037512;28;20171;-74
2022/06/09 08:35:53;;;;;;;23.73;5.78;;;;;;;28.55;20.73;99456.44;5057973;28;20132;-73
2022/06/09 08:38:19;;;;;;;22.10;5.68;;;;;;;28.55;21.18;99457.25;5058055;28;20052;-73
2022/06/09 08:40:54;;;;;;;27.80;5.40;;;;;;;28.81;21.33;99454.38;5041049;28;20044;-73
2022/06/09 08:43:28;;;;;;;17.63;5.13;;;;;;;29.11;20.82;99458.66;5061303;28;20040;-73
2022/06/09 08:45:57;;;;;;;23.27;4.60;;;;;;;29.54;19.88;99455.59;5060127;28;20580;-73
2022/06/09 08:48:29;;;;;;;25.60;5.32;;;;;;;29.67;19.81;99453.06;5040366;28;20036;-74
2022/06/09 08:51:01;;;;;;;23.15;4.70;;;;;;;29.83;19.79;99455.38;5055511;28;20523;-73
2022/06/09 08:53:31;;;;;;;22.65;4.75;;;;;;;29.85;19.18;99454.94;5060169;28;20033;-75
2022/06/09 08:55:59;;;;;;;21.63;3.63;;;;;;;30.03;18.89;99452.00;5058666;28;20079;-73
2022/06/09 08:58:30;;;;;;;12.57;4.13;;;;;;;30.36;18.20;99444.00;5041571;28;20063;-74
2022/06/09 09:01:04;;;;;;;13.55;3.97;;;;;;;30.82;18.49;99446.72;5023060;28;20048;-71
2022/06/09 09:03:37;;;;;;;18.98;3.70;;;;;;;31.17;17.92;99447.47;5015539;28;20047;-74
2022/06/09 09:06:09;;;;;;;19.20;3.30;;;;;;;31.07;17.35;99443.56;5047828;28;20098;-73
2022/06/09 09:08:37;;;;;;;18.42;3.60;;;;;;;31.27;17.42;99440.09;5057984;28;20032;-75
2022/06/09 09:11:18;;;;;;;17.02;3.03;;;;;;;31.61;17.33;99439.19;5030850;28;20481;-74
2022/06/09 09:13:49;;;;;;;22.10;3.50;;;;;;;31.64;17.46;99438.31;5057676;28;20044;-74
2022/06/09 09:16:31;;;;;;;13.68;3.28;;;;;;;31.85;17.97;99438.41;5044713;28;20048;-74
2022/06/09 09:19:06;;;;;;;20.95;3.97;;;;;;;31.86;17.20;99428.72;5062299;28;20072;-74
2022/06/09 09:21:48;;;;;;;22.83;3.53;;;;;;;31.66;17.42;99418.91;5039224;28;20526;-74
2022/06/09 09:24:30;;;;;;;18.73;3.35;;;;;;;32.08;17.36;99429.09;5024503;28;20048;-71
2022/06/09 09:27:07;;;;;;;14.35;3.42;;;;;;;32.33;17.01;99425.81;5029958;28;20135;-71
2022/06/09 09:29:47;;;;;;;27.95;3.55;;;;;;;32.33;16.89;99428.66;5066314;28;20529;-72
2022/06/09 09:32:18;;;;;;;14.02;3.22;;;;;;;32.06;17.36;99417.44;5054902;28;20143;-73
2022/06/09 09:34:47;;;;;;;17.88;3.95;;;;;;;32.31;17.43;99419.00;5039628;28;20053;-74
2022/06/09 09:37:21;;;;;;;15.77;3.63;;;;;;;32.68;17.48;99419.88;5039868;28;20170;-74
2022/06/09 09:39:53;;;;;;;19.88;3.55;;;;;;;33.40;16.43;99420.31;5043359;28;20048;-70
2022/06/09 09:42:22;;;;;;;20.23;3.65;;;;;;;33.78;16.46;99414.16;5039997;28;20090;-75
2022/06/09 09:45:15;;;;;;;10.07;3.50;;;;;;;34.35;15.57;99415.91;5064119;28;20071;-74
2022/06/09 09:47:47;;;;;;;12.95;3.42;;;;;;;34.65;15.39;99417.47;5037727;28;20047;-74
2022/06/09 09:50:28;;;;;;;28.40;4.22;;;;;;;34.44;15.51;99407.53;5070387;28;20060;-74
2022/06/09 09:52:59;;;;;;;18.48;3.85;;;;;;;34.29;16.01;99409.97;5069006;28;20058;-73
2022/06/09 09:55:38;;;;;;;15.77;4.57;;;;;;;33.95;16.20;99408.44;5034942;28;20543;-74
2022/06/09 09:58:21;;;;;;;13.52;3.22;;;;;;;33.23;16.72;99411.81;5030105;28;20048;-71
2022/06/09 10:00:50;;;;;;;12.32;3.75;;;;;;;33.53;16.43;99403.47;5065599;28;20044;-71
2022/06/09 10:09:01;;;;;;;14.20;3.70;;;;;;;35.82;14.76;99403.28;5070922;28;20534;-73
2022/06/09 10:14:29;;;;;;;10.60;3.78;;;;;;;36.67;14.02;99396.22;5045740;28;20136;-74
2022/06/09 10:16:56;;;;;;;15.00;4.35;;;;;;;36.43;14.88;99402.41;5045524;28;20048;-75
2022/06/09 10:19:25;;;;;;;;;;;;;;;36.80;14.30;99405.47;5066531;28;20078;-74
2022/06/09 10:21:54;;;;;;;19.48;4.07;;;;;;;37.32;14.00;99400.19;5063891;28;19934;-74
2022/06/09 10:24:28;;;;;;;17.95;4.63;;;;;;;37.45;14.04;99396.41;5051815;28;20047;-74
2022/06/09 10:26:56;;;;;;;13.10;4.32;;;;;;;37.60;13.68;99400.28;5070310;28;20052;-74
2022/06/09 10:29:28;;;;;;;16.63;4.60;;;;;;;37.27;13.98;99406.50;5061170;28;20650;-73
2022/06/09 10:32:00;;;;;;;15.48;4.72;;;;;;;37.10;14.04;99397.41;5064990;28;20074;-74
2022/06/09 10:34:38;;;;;;;16.30;6.13;;;;;;;36.97;14.20;99391.81;5022972;28;20136;-74
2022/06/09 10:37:14;;;;;;;16.42;7.68;;;;;;;37.16;14.36;99395.56;5004369;28;20061;-74
2022/06/09 10:39:47;;;;;;;13.50;5.28;;;;;;;37.40;13.94;99400.69;5021998;28;20045;-74
2022/06/09 10:42:25;;;;;;;19.50;4.32;;;;;;;37.37;13.60;99409.38;5003372;28;20543;-73
2022/06/09 10:45:08;;;;;;;11.93;4.20;;;;;;;37.67;13.18;99398.38;5018620;28;20504;-71
2022/06/09 10:56:21;;;;;;;33.67;13.52;;;;;;;38.05;12.92;99382.91;5021418;28;20492;-71
2022/06/09 10:58:52;;;;;;;15.10;6.28;;;;;;;38.32;12.98;99383.38;5020179;28;20057;-71
2022/06/09 11:01:21;;;;;;;13.98;5.03;;;;;;;38.80;12.67;99383.59;5019642;28;20045;-71
2022/06/09 11:03:50;;;;;;;11.40;4.60;;;;;;;38.77;12.31;99373.13;5002819;28;20072;-74
2022/06/09 11:06:29;;;;;;;205.10;80.35;;;;;;;39.10;12.06;99380.16;5021053;28;20646;-74
2022/06/09 11:09:04;;;;;;;16.75;5.40;;;;;;;38.52;12.52;99374.31;5014794;28;20037;-75
2022/06/09 11:11:39;;;;;;;26.13;7.23;;;;;;;38.11;13.06;99368.81;5017023;28;20049;-74
2022/06/09 11:14:22;;;;;;;19.27;5.37;;;;;;;37.67;13.41;99364.16;5015217;28;20566;-75
2022/06/09 11:17:01;;;;;;;19.00;5.70;;;;;;;37.73;13.05;99368.00;5020353;28;20302;-74
2022/06/09 11:19:46;;;;;;;17.35;6.03;;;;;;;38.06;12.75;99369.44;5013785;28;20421;-74
2022/06/09 11:22:27;;;;;;;50.45;21.33;;;;;;;38.21;12.70;99370.38;5014620;28;20076;-73
2022/06/09 11:25:01;;;;;;;14.25;4.78;;;;;;;38.20;12.55;99363.09;5015708;28;20062;-74
2022/06/09 11:27:39;;;;;;;21.42;7.00;;;;;;;38.72;12.40;99363.16;5015097;28;20073;-75
2022/06/09 11:30:23;;;;;;;12.95;5.00;;;;;;;38.20;12.46;99368.78;5021030;28;20184;-74
2022/06/09 11:33:01;;;;;;;14.18;4.75;;;;;;;37.80;13.00;99370.53;5017158;28;20049;-74
2022/06/09 11:35:46;;;;;;;12.30;4.47;;;;;;;38.02;12.60;99358.97;5034726;28;20184;-75
2022/06/09 11:38:40;;;;;;;22.05;6.18;;;;;;;38.70;12.48;99374.25;5067977;28;20462;-73
2022/06/09 11:41:20;;;;;;;32.03;5.55;;;;;;;38.29;13.10;99370.84;5056925;28;20044;-74
2022/06/09 11:43:57;;;;;;;29.67;7.13;;;;;;;38.01;13.22;99360.25;5056221;28;20048;-74
2022/06/09 11:46:28;;;;;;;18.40;5.22;;;;;;;38.10;13.45;99352.97;5039997;28;20150;-70
2022/06/09 11:48:58;;;;;;;30.10;5.75;;;;;;;38.23;13.11;99361.34;5046367;28;20051;-70
2022/06/09 11:51:28;;;;;;;18.00;4.80;;;;;;;37.61;13.33;99369.69;5042782;28;20044;-70
2022/06/09 11:53:59;;;;;;;40.17;10.80;;;;;;;37.72;13.57;99347.22;5030333;28;20041;-71
2022/06/09 11:56:36;;;;;;;24.08;6.82;;;;;;;38.01;13.20;99363.09;5048581;28;20113;-70
2022/06/09 11:59:16;;;;;;;16.25;5.15;;;;;;;37.99;12.81;99333.47;5066036;28;20055;-70
2022/06/09 12:01:55;;;;;;;16.02;5.43;;;;;;;38.28;13.06;99352.13;5047428;28;20432;-69